Time;durP1;ratioP1;P1;durP2;ratioP2;P2;SDS_P1;SDS_P2;PMS_P1;PMS_P2;Temp;Humidity;BMP_temperature;BMP_pressure;BME280_temperature;BME280_humidity;BME280_pressure;Samples;Min_cycle;Max_cycle;Signal;HPM_P1;HPM_P2
2023/06/09 00:01:13;;;;;;;9.50;8.10;;;;;;;;;;5135978;27;20043;-59
2023/06/09 00:03:40;;;;;;;9.30;7.80;;;;;;;;;;5136187;27;20073;-59
2023/06/09 00:06:09;;;;;;;10.02;7.82;;;;;;;;;;5136187;27;20054;-59
2023/06/09 00:08:35;;;;;;;9.77;8.73;;;;;;;;;;5136277;27;20043;-59
2023/06/09 00:11:02;;;;;;;10.30;9.30;;;;;;;;;;5136189;27;20055;-59
2023/06/09 00:13:29;;;;;;;8.43;7.63;;;;;;;;;;5136164;27;20051;-59
2023/06/09 00:15:56;;;;;;;10.27;9.10;;;;;;;;;;5136025;27;20058;-59
2023/06/09 00:18:24;;;;;;;8.35;7.53;;;;;;;;;;5135767;27;20486;-59
2023/06/09 00:20:51;;;;;;;8.93;7.80;;;;;;;;;;5135598;27;20062;-59
2023/06/09 00:23:19;;;;;;;10.57;9.57;;;;;;;;;;5135780;27;20426;-59
2023/06/09 00:25:46;;;;;;;9.80;8.73;;;;;;;;;;5134804;27;20047;-59
2023/06/09 00:28:13;;;;;;;10.10;8.90;;;;;;;;;;5135597;27;20399;-59
2023/06/09 00:30:40;;;;;;;11.32;10.25;;;;;;;;;;5135342;27;20064;-59
2023/06/09 00:33:06;;;;;;;10.57;9.65;;;;;;;;;;5135720;27;20054;-59
2023/06/09 00:35:33;;;;;;;10.82;9.73;;;;;;;;;;5135303;27;20054;-59
2023/06/09 00:38:00;;;;;;;10.30;9.30;;;;;;;;;;5135311;27;20055;-59
2023/06/09 00:40:28;;;;;;;11.70;10.27;;;;;;;;;;5135272;27;20055;-59
2023/06/09 00:42:55;;;;;;;11.05;9.75;;;;;;;;;;5135125;27;20047;-59
2023/06/09 00:45:22;;;;;;;9.20;8.32;;;;;;;;;;5135149;27;20082;-59
2023/06/09 00:47:49;;;;;;;9.70;8.65;;;;;;;;;;5135664;27;20058;-59
2023/06/09 00:50:19;;;;;;;10.27;9.27;;;;;;;;;;5135417;27;20051;-59
2023/06/09 00:52:47;;;;;;;10.55;9.20;;;;;;;;;;5135530;27;20054;-59
2023/06/09 00:55:14;;;;;;;8.98;8.07;;;;;;;;;;5134875;27;20051;-59
2023/06/09 00:57:43;;;;;;;10.23;9.20;;;;;;;;;;5135268;27;20054;-59
2023/06/09 01:00:13;;;;;;;9.93;8.93;;;;;;;;;;5135268;27;20514;-59
2023/06/09 01:02:40;;;;;;;9.95;9.05;;;;;;;;;;5135138;27;20051;-59
2023/06/09 01:05:12;;;;;;;10.93;9.30;;;;;;;;;;5135000;27;20483;-59
2023/06/09 01:07:43;;;;;;;9.93;9.00;;;;;;;;;;5135076;27;20058;-59
2023/06/09 01:10:14;;;;;;;10.23;9.23;;;;;;;;;;5134580;27;20062;-59
2023/06/09 01:12:46;;;;;;;9.85;8.95;;;;;;;;;;5134725;27;20373;-59
2023/06/09 01:15:18;;;;;;;11.10;9.30;;;;;;;;;;5134430;27;20054;-59
2023/06/09 01:17:45;;;;;;;11.35;9.35;;;;;;;;;;5114744;27;20051;-59
2023/06/09 01:20:15;;;;;;;10.60;9.60;;;;;;;;;;5113669;28;20051;-59
2023/06/09 01:22:50;;;;;;;10.55;9.45;;;;;;;;;;5114239;28;20055;-59
2023/06/09 01:25:34;;;;;;;11.82;9.10;;;;;;;;;;5113737;28;20051;-59
2023/06/09 01:28:03;;;;;;;11.25;9.13;;;;;;;;;;5113980;28;20055;-59
2023/06/09 01:30:32;;;;;;;10.02;9.02;;;;;;;;;;5113798;28;20051;-58
2023/06/09 01:33:00;;;;;;;10.40;9.38;;;;;;;;;;5113943;28;20051;-59
2023/06/09 01:35:27;;;;;;;11.18;10.07;;;;;;;;;;5113502;28;20059;-59
2023/06/09 01:37:55;;;;;;;10.30;9.30;;;;;;;;;;5113144;28;20048;-59
2023/06/09 01:40:22;;;;;;;11.70;10.50;;;;;;;;;;5113795;28;20058;-59
2023/06/09 01:42:50;;;;;;;14.10;11.30;;;;;;;;;;5113294;28;20055;-59
2023/06/09 01:45:17;;;;;;;12.27;11.07;;;;;;;;;;5113576;28;20055;-59
2023/06/09 01:47:46;;;;;;;12.80;10.60;;;;;;;;;;5113855;28;20066;-60
2023/06/09 01:50:16;;;;;;;11.38;10.32;;;;;;;;;;5113661;28;20069;-59
2023/06/09 01:52:46;;;;;;;10.88;9.75;;;;;;;;;;5113598;28;20043;-59
2023/06/09 01:55:15;;;;;;;11.25;10.20;;;;;;;;;;5113377;28;20054;-59
2023/06/09 01:57:45;;;;;;;11.80;10.63;;;;;;;;;;5112840;28;20059;-59
2023/06/09 02:00:14;;;;;;;11.02;9.77;;;;;;;;;;5113129;28;20059;-60
2023/06/09 02:02:41;;;;;;;;;;;;;;;;;;5130640;27;20074;-59
2023/06/09 02:05:09;;;;;;;10.05;9.05;;;;;;;;;;5133886;27;19926;-59
2023/06/09 02:07:36;;;;;;;10.18;9.20;;;;;;;;;;5133945;27;20051;-59
2023/06/09 02:10:03;;;;;;;10.68;9.68;;;;;;;;;;5133613;27;20423;-60
2023/06/09 02:12:36;;;;;;;11.02;9.93;;;;;;;;;;5133890;27;20050;-60
2023/06/09 02:15:03;;;;;;;11.50;10.32;;;;;;;;;;5133508;27;20051;-59
2023/06/09 02:17:33;;;;;;;11.20;10.15;;;;;;;;;;5133839;27;20054;-59
2023/06/09 02:20:04;;;;;;;12.50;11.27;;;;;;;;;;5133727;27;20050;-59
2023/06/09 02:22:30;;;;;;;12.10;11.00;;;;;;;;;;5133384;27;20510;-59
2023/06/09 02:24:58;;;;;;;12.15;11.00;;;;;;;;;;5133619;27;20476;-59
2023/06/09 02:27:25;;;;;;;12.88;11.52;;;;;;;;;;5133734;27;20395;-59
2023/06/09 02:29:51;;;;;;;13.18;11.80;;;;;;;;;;5133725;28;20047;-60
2023/06/09 02:32:18;;;;;;;13.85;12.35;;;;;;;;;;5133649;28;20058;-60
2023/06/09 02:34:46;;;;;;;13.02;11.65;;;;;;;;;;5133346;28;20051;-60
2023/06/09 02:37:13;;;;;;;13.15;11.85;;;;;;;;;;5133466;28;20058;-60
2023/06/09 02:39:40;;;;;;;13.57;12.27;;;;;;;;;;5133556;28;20055;-60
2023/06/09 02:42:07;;;;;;;12.80;11.45;;;;;;;;;;5133791;28;20051;-52
2023/06/09 02:44:37;;;;;;;13.13;11.95;;;;;;;;;;5133767;28;20051;-59
2023/06/09 02:47:04;;;;;;;12.45;11.35;;;;;;;;;;5132992;28;20062;-59
2023/06/09 02:49:30;;;;;;;13.52;12.18;;;;;;;;;;5135047;27;20047;-60
2023/06/09 02:51:59;;;;;;;12.73;11.43;;;;;;;;;;5137599;27;20051;-59
2023/06/09 02:54:26;;;;;;;12.73;11.50;;;;;;;;;;5137435;27;20058;-59
2023/06/09 02:56:53;;;;;;;15.23;13.73;;;;;;;;;;5137052;27;20055;-59
2023/06/09 02:59:23;;;;;;;12.23;11.13;;;;;;;;;;5137461;27;20529;-59
2023/06/09 03:01:50;;;;;;;11.98;10.77;;;;;;;;;;5137163;27;20055;-59
2023/06/09 03:04:17;;;;;;;13.27;12.07;;;;;;;;;;5136900;27;20043;-59
2023/06/09 03:06:50;;;;;;;11.90;10.80;;;;;;;;;;5137086;27;20407;-59
2023/06/09 03:09:18;;;;;;;13.60;11.10;;;;;;;;;;5137203;27;20051;-59
2023/06/09 03:11:47;;;;;;;11.90;10.77;;;;;;;;;;5137221;27;20047;-59
2023/06/09 03:14:14;;;;;;;10.90;9.90;;;;;;;;;;5136654;27;20047;-59
2023/06/09 03:16:41;;;;;;;10.75;9.77;;;;;;;;;;5137085;27;20047;-59
2023/06/09 03:19:08;;;;;;;13.32;12.02;;;;;;;;;;5136998;27;20051;-59
2023/06/09 03:21:36;;;;;;;13.20;11.45;;;;;;;;;;5136909;27;20467;-59
2023/06/09 03:24:04;;;;;;;13.15;11.65;;;;;;;;;;5136887;27;20066;-59
2023/06/09 03:26:35;;;;;;;12.45;10.80;;;;;;;;;;5136735;27;20058;-60
2023/06/09 03:29:02;;;;;;;11.48;10.38;;;;;;;;;;5136658;27;20058;-59
2023/06/09 03:31:28;;;;;;;11.18;10.15;;;;;;;;;;5136868;27;20054;-60
2023/06/09 03:33:56;;;;;;;11.18;10.00;;;;;;;;;;5136598;27;20047;-60
2023/06/09 03:36:23;;;;;;;11.68;10.57;;;;;;;;;;5136771;27;20059;-59
2023/06/09 03:38:50;;;;;;;12.82;11.57;;;;;;;;;;5136607;27;20055;-59
2023/06/09 03:41:17;;;;;;;11.93;10.73;;;;;;;;;;5136763;27;20050;-60
2023/06/09 03:43:45;;;;;;;10.07;9.02;;;;;;;;;;5136645;27;20047;-59
2023/06/09 03:46:12;;;;;;;11.93;10.10;;;;;;;;;;5136166;27;20051;-59
2023/06/09 03:48:40;;;;;;;11.88;10.77;;;;;;;;;;5136488;27;20051;-59
2023/06/09 03:51:08;;;;;;;11.57;10.38;;;;;;;;;;5136376;27;20062;-59
2023/06/09 03:53:35;;;;;;;12.20;11.05;;;;;;;;;;5136294;27;20047;-60
2023/06/09 03:56:02;;;;;;;16.30;11.00;;;;;;;;;;5135780;27;20054;-59
2023/06/09 03:58:29;;;;;;;11.95;10.55;;;;;;;;;;5136526;27;20411;-59
2023/06/09 04:00:57;;;;;;;11.15;10.15;;;;;;;;;;5135915;27;20055;-59
2023/06/09 04:03:24;;;;;;;11.15;10.07;;;;;;;;;;5136061;27;20055;-60
2023/06/09 04:05:51;;;;;;;11.95;10.80;;;;;;;;;;5135706;27;20054;-60
2023/06/09 04:08:18;;;;;;;11.38;10.25;;;;;;;;;;5136286;27;20058;-59
2023/06/09 04:10:45;;;;;;;13.00;11.77;;;;;;;;;;5136082;27;20051;-59
2023/06/09 04:13:12;;;;;;;11.65;10.45;;;;;;;;;;5135960;27;20078;-60
2023/06/09 04:15:39;;;;;;;14.82;10.52;;;;;;;;;;5135644;27;20066;-59
2023/06/09 04:18:07;;;;;;;14.10;10.73;;;;;;;;;;5135944;27;20043;-59
2023/06/09 04:20:34;;;;;;;11.52;10.18;;;;;;;;;;5136004;27;20051;-58
2023/06/09 04:23:01;;;;;;;13.82;11.10;;;;;;;;;;5135638;27;20483;-59
2023/06/09 04:25:28;;;;;;;12.60;11.35;;;;;;;;;;5135459;27;20047;-60
2023/06/09 04:27:55;;;;;;;12.57;11.45;;;;;;;;;;5135918;27;20047;-60
2023/06/09 04:30:25;;;;;;;11.88;10.77;;;;;;;;;;5135581;27;20055;-60
2023/06/09 04:32:52;;;;;;;16.40;13.20;;;;;;;;;;5135933;27;20059;-60
2023/06/09 04:35:20;;;;;;;12.25;11.05;;;;;;;;;;5135428;27;20047;-60
2023/06/09 04:37:48;;;;;;;11.98;10.90;;;;;;;;;;5135801;27;20058;-60
2023/06/09 04:40:21;;;;;;;11.38;10.35;;;;;;;;;;5135538;27;20062;-60
2023/06/09 04:42:51;;;;;;;12.40;11.30;;;;;;;;;;5135704;27;20055;-59
2023/06/09 04:45:18;;;;;;;12.30;11.20;;;;;;;;;;5135165;27;20047;-60
2023/06/09 04:47:45;;;;;;;11.95;10.85;;;;;;;;;;5135594;27;20053;-60
2023/06/09 04:50:13;;;;;;;12.48;11.27;;;;;;;;;;5135319;27;20055;-60
2023/06/09 04:52:42;;;;;;;11.90;10.65;;;;;;;;;;5135282;27;20051;-59
2023/06/09 04:55:09;;;;;;;13.82;12.52;;;;;;;;;;5134790;27;20514;-59
2023/06/09 04:57:36;;;;;;;13.00;11.80;;;;;;;;;;5134664;27;20062;-59
2023/06/09 05:00:04;;;;;;;12.45;11.27;;;;;;;;;;5134796;27;20051;-59
2023/06/09 05:02:31;;;;;;;12.48;11.18;;;;;;;;;;5134881;27;20055;-60
2023/06/09 05:04:59;;;;;;;13.40;12.15;;;;;;;;;;5134868;27;20521;-60
2023/06/09 05:07:26;;;;;;;14.48;12.02;;;;;;;;;;5135004;27;20399;-60
2023/06/09 05:09:54;;;;;;;12.98;11.55;;;;;;;;;;5134633;27;20518;-60
2023/06/09 05:12:21;;;;;;;16.40;11.23;;;;;;;;;;5134314;27;20480;-59
2023/06/09 05:14:48;;;;;;;13.00;11.73;;;;;;;;;;5134472;27;20050;-60
2023/06/09 05:17:15;;;;;;;12.40;11.20;;;;;;;;;;5134649;27;20070;-60
2023/06/09 05:19:42;;;;;;;12.18;10.90;;;;;;;;;;5134235;27;20062;-60
2023/06/09 05:22:09;;;;;;;11.88;10.68;;;;;;;;;;5134184;27;20090;-60
2023/06/09 05:24:36;;;;;;;11.18;9.50;;;;;;;;;;5133884;27;20057;-60
2023/06/09 05:27:05;;;;;;;11.65;10.55;;;;;;;;;;5134428;27;20051;-50
2023/06/09 05:29:32;;;;;;;12.73;11.55;;;;;;;;;;5133877;27;20468;-51
2023/06/09 05:31:58;;;;;;;12.23;10.95;;;;;;;;;;5134203;27;20055;-50
2023/06/09 05:34:25;;;;;;;13.13;11.90;;;;;;;;;;5134415;27;20058;-49
2023/06/09 05:36:58;;;;;;;14.20;12.80;;;;;;;;;;5134158;27;20047;-47
2023/06/09 05:39:24;;;;;;;13.27;12.07;;;;;;;;;;5134335;27;20103;-48
2023/06/09 05:41:51;;;;;;;14.38;13.07;;;;;;;;;;5134312;27;20051;-60
2023/06/09 05:44:19;;;;;;;15.25;13.90;;;;;;;;;;5134101;27;20051;-60
2023/06/09 05:46:46;;;;;;;14.00;12.73;;;;;;;;;;5134163;27;20381;-60
2023/06/09 05:49:13;;;;;;;14.23;12.82;;;;;;;;;;5133750;27;20051;-60
2023/06/09 05:51:40;;;;;;;14.68;13.27;;;;;;;;;;5133804;27;20055;-60
2023/06/09 05:54:07;;;;;;;13.32;11.98;;;;;;;;;;5133825;27;20051;-60
2023/06/09 05:56:34;;;;;;;13.95;12.57;;;;;;;;;;5133140;27;20044;-60
2023/06/09 05:59:02;;;;;;;13.90;12.55;;;;;;;;;;5133572;27;20047;-60
2023/06/09 06:01:31;;;;;;;13.30;12.13;;;;;;;;;;5133590;27;20050;-60
2023/06/09 06:03:58;;;;;;;14.05;12.32;;;;;;;;;;5133909;27;20436;-60
2023/06/09 06:06:25;;;;;;;14.00;12.60;;;;;;;;;;5133637;27;20050;-60
2023/06/09 06:08:52;;;;;;;12.90;11.70;;;;;;;;;;5133759;27;20403;-62
2023/06/09 06:11:19;;;;;;;13.18;11.82;;;;;;;;;;5137674;27;20058;-59
2023/06/09 06:13:46;;;;;;;13.65;12.27;;;;;;;;;;5136551;27;20051;-59
2023/06/09 06:16:12;;;;;;;14.80;13.27;;;;;;;;;;5133504;27;20393;-59
2023/06/09 06:18:41;;;;;;;13.45;12.23;;;;;;;;;;5133484;27;20060;-59
2023/06/09 06:21:07;;;;;;;12.50;11.40;;;;;;;;;;5133554;27;20069;-59
2023/06/09 06:23:35;;;;;;;12.63;11.43;;;;;;;;;;5132695;27;20062;-59
2023/06/09 06:26:02;;;;;;;12.95;11.68;;;;;;;;;;5133561;27;20048;-59
2023/06/09 06:28:29;;;;;;;11.85;10.77;;;;;;;;;;5133204;27;20058;-59
2023/06/09 06:30:56;;;;;;;11.20;9.95;;;;;;;;;;5133445;27;20131;-59
2023/06/09 06:33:23;;;;;;;12.63;11.10;;;;;;;;;;5133154;28;20051;-60
2023/06/09 06:35:52;;;;;;;12.50;11.30;;;;;;;;;;5133185;28;20493;-59
2023/06/09 06:38:19;;;;;;;10.85;9.75;;;;;;;;;;5133113;28;20055;-59
2023/06/09 06:40:47;;;;;;;10.07;9.18;;;;;;;;;;5132921;28;20062;-59
2023/06/09 06:43:15;;;;;;;11.52;9.82;;;;;;;;;;5133116;28;20412;-59
2023/06/09 06:45:41;;;;;;;9.65;8.75;;;;;;;;;;5132873;28;20051;-60
2023/06/09 06:48:08;;;;;;;12.20;8.70;;;;;;;;;;5133347;28;20051;-59
2023/06/09 06:50:35;;;;;;;8.60;7.70;;;;;;;;;;5133118;28;20059;-59
2023/06/09 06:53:03;;;;;;;8.65;7.63;;;;;;;;;;5133150;28;20055;-60
2023/06/09 06:55:30;;;;;;;9.90;8.32;;;;;;;;;;5133115;28;20051;-58
2023/06/09 06:57:57;;;;;;;8.63;7.82;;;;;;;;;;5132590;28;20055;-60
2023/06/09 07:00:24;;;;;;;8.77;7.60;;;;;;;;;;5133278;28;20054;-60
2023/06/09 07:02:51;;;;;;;11.27;7.82;;;;;;;;;;5133329;28;20062;-60
2023/06/09 07:05:18;;;;;;;11.57;8.25;;;;;;;;;;5133292;28;20063;-59
2023/06/09 07:07:45;;;;;;;8.20;7.40;;;;;;;;;;5133321;28;20055;-59
2023/06/09 07:10:14;;;;;;;7.93;7.22;;;;;;;;;;5132836;28;20066;-59
2023/06/09 07:12:41;;;;;;;8.80;7.90;;;;;;;;;;5133465;28;20395;-60
2023/06/09 07:15:08;;;;;;;7.90;7.20;;;;;;;;;;5133167;28;20051;-60
2023/06/09 07:17:35;;;;;;;7.78;6.82;;;;;;;;;;5133161;28;20051;-60
2023/06/09 07:20:03;;;;;;;8.60;7.78;;;;;;;;;;5133010;28;20047;-60
2023/06/09 07:22:33;;;;;;;9.15;7.35;;;;;;;;;;5133183;28;20078;-60
2023/06/09 07:25:00;;;;;;;8.30;7.15;;;;;;;;;;5132907;28;20054;-59
2023/06/09 07:27:28;;;;;;;7.28;6.57;;;;;;;;;;5132994;28;20072;-59
2023/06/09 07:29:56;;;;;;;7.05;6.35;;;;;;;;;;5132936;28;20411;-59
2023/06/09 07:32:22;;;;;;;11.85;7.30;;;;;;;;;;5132983;28;20047;-59
2023/06/09 07:34:50;;;;;;;7.63;6.82;;;;;;;;;;5133492;27;20376;-59
2023/06/09 07:37:17;;;;;;;7.72;7.03;;;;;;;;;;5136861;27;20051;-59
2023/06/09 07:39:44;;;;;;;7.60;6.90;;;;;;;;;;5136641;27;20062;-59
2023/06/09 07:42:10;;;;;;;8.10;6.28;;;;;;;;;;5136641;27;20503;-59
2023/06/09 07:44:39;;;;;;;7.55;6.80;;;;;;;;;;5136256;27;20055;-60
2023/06/09 07:47:06;;;;;;;6.85;6.25;;;;;;;;;;5136694;27;20154;-60
2023/06/09 07:49:33;;;;;;;8.30;6.93;;;;;;;;;;5136352;27;20511;-60
2023/06/09 07:52:00;;;;;;;7.20;6.30;;;;;;;;;;5136428;27;20055;-60
2023/06/09 07:54:27;;;;;;;6.47;5.80;;;;;;;;;;5135991;27;20055;-60
2023/06/09 07:56:54;;;;;;;7.57;6.88;;;;;;;;;;5135888;27;20051;-60
2023/06/09 07:59:23;;;;;;;5.97;5.38;;;;;;;;;;5136167;27;20055;-60
2023/06/09 08:01:51;;;;;;;10.85;5.93;;;;;;;;;;5136020;27;20047;-59
2023/06/09 08:04:18;;;;;;;11.87;5.83;;;;;;;;;;5136110;27;20460;-59
2023/06/09 08:06:45;;;;;;;7.10;5.60;;;;;;;;;;5135921;27;20043;-59
2023/06/09 08:09:11;;;;;;;6.03;5.35;;;;;;;;;;5136119;27;20058;-59
2023/06/09 08:11:39;;;;;;;5.40;4.90;;;;;;;;;;5136116;27;20055;-53
2023/06/09 08:14:06;;;;;;;7.75;5.00;;;;;;;;;;5135645;27;20051;-52
2023/06/09 08:16:33;;;;;;;18.27;6.75;;;;;;;;;;5135994;27;20498;-52
2023/06/09 08:19:01;;;;;;;9.25;5.15;;;;;;;;;;5135312;27;20055;-51
2023/06/09 08:21:28;;;;;;;5.15;4.57;;;;;;;;;;5135628;27;20394;-51
2023/06/09 08:23:55;;;;;;;5.38;4.20;;;;;;;;;;5135667;27;20051;-52
2023/06/09 08:26:22;;;;;;;4.13;3.78;;;;;;;;;;5135801;27;20058;-50
2023/06/09 08:28:49;;;;;;;4.95;4.32;;;;;;;;;;5135693;27;20050;-52
2023/06/09 08:31:16;;;;;;;7.35;4.47;;;;;;;;;;5135223;27;20047;-52
2023/06/09 08:33:44;;;;;;;7.37;4.07;;;;;;;;;;5135413;27;20047;-54
2023/06/09 08:36:12;;;;;;;3.27;2.97;;;;;;;;;;5135382;27;20081;-52
2023/06/09 08:38:38;;;;;;;5.10;2.95;;;;;;;;;;5135248;27;20828;-51
2023/06/09 08:41:07;;;;;;;102.07;27.65;;;;;;;;;;5135233;27;20054;-52
2023/06/09 08:43:34;;;;;;;4.65;3.30;;;;;;;;;;5135413;27;20074;-51
2023/06/09 08:46:02;;;;;;;3.70;3.40;;;;;;;;;;5134914;27;20057;-52
2023/06/09 08:48:30;;;;;;;3.90;3.45;;;;;;;;;;5134714;27;20046;-53
2023/06/09 08:50:58;;;;;;;4.07;3.53;;;;;;;;;;5135046;27;20403;-54
2023/06/09 08:53:26;;;;;;;3.40;3.08;;;;;;;;;;5134834;27;20055;-54
2023/06/09 08:55:53;;;;;;;4.32;3.13;;;;;;;;;;5134682;27;20058;-54
2023/06/09 08:58:21;;;;;;;4.45;3.28;;;;;;;;;;5134770;27;20058;-53
2023/06/09 09:00:48;;;;;;;3.03;2.72;;;;;;;;;;5134459;27;20070;-53
2023/06/09 09:03:16;;;;;;;3.90;2.80;;;;;;;;;;5134576;27;20062;-53
2023/06/09 09:05:44;;;;;;;3.53;3.00;;;;;;;;;;5134359;27;20051;-52
2023/06/09 09:08:11;;;;;;;3.50;2.95;;;;;;;;;;5134492;27;20051;-53
2023/06/09 09:10:40;;;;;;;3.40;3.05;;;;;;;;;;5134387;27;20061;-51
2023/06/09 09:13:08;;;;;;;3.10;2.80;;;;;;;;;;5134331;27;20059;-54
2023/06/09 09:15:37;;;;;;;3.20;2.90;;;;;;;;;;5133791;27;20062;-53
2023/06/09 09:18:05;;;;;;;8.45;3.05;;;;;;;;;;5134098;27;20051;-49
2023/06/09 09:20:32;;;;;;;3.97;2.63;;;;;;;;;;5133979;27;20047;-52
2023/06/09 09:22:59;;;;;;;6.15;3.13;;;;;;;;;;5134260;27;20051;-54
2023/06/09 09:25:26;;;;;;;3.95;3.08;;;;;;;;;;5134256;27;20072;-52
2023/06/09 09:28:04;;;;;;;3.78;3.42;;;;;;;;;;5133803;27;20047;-54
2023/06/09 09:30:41;;;;;;;3.40;3.10;;;;;;;;;;5134092;27;20047;-53
2023/06/09 09:33:09;;;;;;;3.97;2.78;;;;;;;;;;5134254;27;20066;-54
2023/06/09 09:35:36;;;;;;;3.80;3.40;;;;;;;;;;5134166;27;20047;-54
2023/06/09 09:38:03;;;;;;;3.45;2.90;;;;;;;;;;5134508;27;20054;-54
2023/06/09 09:40:30;;;;;;;2.83;2.60;;;;;;;;;;5134033;27;20492;-53
2023/06/09 09:42:59;;;;;;;3.15;2.88;;;;;;;;;;5134180;27;20488;-54
2023/06/09 09:45:29;;;;;;;3.38;3.08;;;;;;;;;;5134092;27;20051;-54
2023/06/09 09:48:08;;;;;;;3.10;2.72;;;;;;;;;;5133660;27;20165;-52
2023/06/09 09:50:36;;;;;;;3.72;2.95;;;;;;;;;;5133754;27;20047;-54
2023/06/09 09:53:03;;;;;;;3.85;3.10;;;;;;;;;;5133911;27;20051;-53
2023/06/09 09:55:30;;;;;;;3.00;2.70;;;;;;;;;;5133559;27;20511;-54
2023/06/09 09:57:58;;;;;;;5.72;2.90;;;;;;;;;;5133324;27;20051;-54
2023/06/09 10:00:25;;;;;;;;;;;;;;;;;;5134435;27;20051;-53
2023/06/09 10:02:56;;;;;;;6.00;2.97;;;;;;;;;;5133905;27;19919;-52
2023/06/09 10:05:23;;;;;;;3.88;2.90;;;;;;;;;;5133785;27;20051;-54
2023/06/09 10:07:55;;;;;;;3.58;3.05;;;;;;;;;;5133602;27;20062;-52
2023/06/09 10:10:22;;;;;;;4.32;3.05;;;;;;;;;;5133555;27;20047;-52
2023/06/09 10:12:50;;;;;;;3.33;3.03;;;;;;;;;;5133703;27;20051;-54
2023/06/09 10:15:17;;;;;;;3.97;3.00;;;;;;;;;;5133685;27;20392;-53
2023/06/09 10:17:45;;;;;;;4.72;3.10;;;;;;;;;;5133741;27;20043;-53
2023/06/09 10:20:14;;;;;;;3.30;2.90;;;;;;;;;;5133435;27;20051;-52
2023/06/09 10:22:42;;;;;;;3.15;2.85;;;;;;;;;;5133493;27;20051;-52
2023/06/09 10:25:09;;;;;;;5.70;3.30;;;;;;;;;;5133461;27;20055;-52
2023/06/09 10:27:36;;;;;;;3.28;2.88;;;;;;;;;;5133274;27;20128;-54
2023/06/09 10:30:04;;;;;;;4.40;3.07;;;;;;;;;;5133437;27;20476;-53
2023/06/09 10:32:30;;;;;;;;;;;;;;;;;;5133910;27;20062;-52
2023/06/09 10:34:58;;;;;;;7.33;3.23;;;;;;;;;;5133181;27;19926;-52
2023/06/09 10:37:30;;;;;;;4.30;3.20;;;;;;;;;;5133527;28;20396;-53
2023/06/09 10:39:59;;;;;;;4.70;3.78;;;;;;;;;;5133475;28;20054;-52
2023/06/09 10:42:32;;;;;;;5.80;3.60;;;;;;;;;;5133480;28;20043;-52
2023/06/09 10:45:03;;;;;;;3.75;3.45;;;;;;;;;;5133010;28;20051;-53
2023/06/09 10:47:43;;;;;;;4.38;3.95;;;;;;;;;;5132944;28;20503;-52
2023/06/09 10:50:22;;;;;;;4.97;3.45;;;;;;;;;;5132919;28;20054;-52
2023/06/09 10:52:54;;;;;;;4.45;3.95;;;;;;;;;;5133411;28;20426;-53
2023/06/09 10:55:22;;;;;;;5.93;3.90;;;;;;;;;;5132958;28;20051;-52
2023/06/09 10:57:50;;;;;;;4.80;3.65;;;;;;;;;;5132695;28;20070;-52
2023/06/09 11:00:17;;;;;;;4.05;3.65;;;;;;;;;;5132904;28;20058;-53
2023/06/09 11:02:47;;;;;;;5.72;4.15;;;;;;;;;;5133075;28;20058;-52
2023/06/09 11:05:15;;;;;;;9.02;4.32;;;;;;;;;;5133231;28;20059;-54
2023/06/09 11:07:43;;;;;;;;;;;;;;;;;;5133852;28;20051;-54
2023/06/09 11:10:33;;;;;;;4.85;3.65;;;;;;;;;;5133903;27;19926;-56
2023/06/09 11:13:03;;;;;;;3.85;3.50;;;;;;;;;;5137224;27;20058;-53
2023/06/09 11:16:03;;;;;;;4.63;3.90;;;;;;;;;;5136977;27;20062;-54
2023/06/09 11:18:30;;;;;;;5.03;3.90;;;;;;;;;;5053431;28;20489;-53
2023/06/09 11:21:18;;;;;;;5.38;4.13;;;;;;;;;;5052888;28;20052;-52
2023/06/09 11:24:00;;;;;;;7.95;4.03;;;;;;;;;;5102050;27;20055;-54
2023/06/09 11:26:27;;;;;;;4.50;3.80;;;;;;;;;;5136466;27;20052;-53
2023/06/09 11:28:54;;;;;;;;;;;;;;;;;;5137244;27;20054;-51
2023/06/09 11:31:22;;;;;;;4.20;3.80;;;;;;;;;;5136571;27;20402;-55
2023/06/09 11:33:50;;;;;;;4.43;3.40;;;;;;;;;;5136368;27;20054;-53
2023/06/09 11:36:25;;;;;;;5.53;3.13;;;;;;;;;;5136463;27;20373;-52
2023/06/09 11:38:52;;;;;;;4.57;3.70;;;;;;;;;;5136691;27;20043;-54
2023/06/09 11:41:20;;;;;;;6.68;3.53;;;;;;;;;;5136448;27;20047;-52
2023/06/09 11:43:50;;;;;;;4.13;3.70;;;;;;;;;;5136073;27;20055;-51
2023/06/09 11:46:17;;;;;;;5.78;4.22;;;;;;;;;;5136254;27;20072;-52
2023/06/09 11:49:05;;;;;;;4.22;3.60;;;;;;;;;;5136041;27;20054;-52
2023/06/09 11:51:50;;;;;;;8.77;4.07;;;;;;;;;;5136022;27;20055;-54
2023/06/09 11:54:17;;;;;;;5.70;3.47;;;;;;;;;;5135965;27;20047;-54
2023/06/09 11:56:46;;;;;;;4.13;3.63;;;;;;;;;;5135691;27;20062;-52
2023/06/09 11:59:13;;;;;;;4.07;3.67;;;;;;;;;;5136290;27;20047;-53
2023/06/09 12:01:40;;;;;;;17.00;6.90;;;;;;;;;;5136078;27;20051;-51
2023/06/09 12:04:08;;;;;;;23.80;7.28;;;;;;;;;;5135791;27;20468;-53
2023/06/09 12:06:36;;;;;;;45.63;10.95;;;;;;;;;;5136092;27;20480;-49
2023/06/09 12:09:22;;;;;;;6.90;4.80;;;;;;;;;;5135981;27;20472;-53
2023/06/09 12:11:53;;;;;;;27.00;8.02;;;;;;;;;;5135883;27;20051;-50
2023/06/09 12:14:20;;;;;;;8.90;4.82;;;;;;;;;;5135839;27;20413;-52
2023/06/09 12:16:47;;;;;;;8.50;4.45;;;;;;;;;;5135925;27;20476;-52
2023/06/09 12:19:15;;;;;;;5.00;4.10;;;;;;;;;;5135552;27;20047;-50
2023/06/09 12:21:42;;;;;;;4.78;4.18;;;;;;;;;;5134380;27;20054;-51
2023/06/09 12:24:12;;;;;;;5.15;4.47;;;;;;;;;;5135885;27;20389;-59
2023/06/09 12:26:39;;;;;;;28.92;8.98;;;;;;;;;;5134051;27;20054;-59
2023/06/09 12:29:06;;;;;;;56.92;13.20;;;;;;;;;;5135531;27;20395;-60
2023/06/09 12:31:33;;;;;;;6.40;4.40;;;;;;;;;;5135405;27;20105;-60
2023/06/09 12:34:01;;;;;;;5.03;4.40;;;;;;;;;;5135414;27;20055;-60
2023/06/09 12:36:39;;;;;;;4.55;4.15;;;;;;;;;;5135332;27;20055;-60
2023/06/09 12:39:16;;;;;;;4.82;4.32;;;;;;;;;;5135488;27;20074;-60
2023/06/09 12:41:43;;;;;;;6.97;4.55;;;;;;;;;;5135134;27;20058;-60
2023/06/09 12:44:18;;;;;;;5.45;4.25;;;;;;;;;;5134946;27;20051;-59
2023/06/09 12:46:45;;;;;;;4.85;4.07;;;;;;;;;;5135262;27;20047;-59
2023/06/09 12:49:12;;;;;;;5.15;4.40;;;;;;;;;;5134901;27;20047;-59
2023/06/09 12:51:41;;;;;;;5.13;3.80;;;;;;;;;;5134818;27;20047;-60
2023/06/09 12:54:08;;;;;;;4.05;3.70;;;;;;;;;;5134820;27;20380;-60
2023/06/09 12:56:35;;;;;;;5.55;4.05;;;;;;;;;;5134514;27;20062;-59
2023/06/09 12:59:02;;;;;;;6.47;4.38;;;;;;;;;;5134805;27;20055;-60
2023/06/09 13:01:31;;;;;;;5.63;4.00;;;;;;;;;;5134272;27;20058;-60
2023/06/09 13:03:58;;;;;;;4.40;4.00;;;;;;;;;;5134533;27;20062;-60
2023/06/09 13:06:25;;;;;;;6.07;4.47;;;;;;;;;;5134650;27;20058;-60
2023/06/09 13:08:56;;;;;;;5.55;4.07;;;;;;;;;;5134234;27;20384;-59
2023/06/09 13:11:27;;;;;;;4.53;4.10;;;;;;;;;;5134440;27;20376;-60
2023/06/09 13:13:55;;;;;;;8.65;4.40;;;;;;;;;;5132817;27;20051;-59
2023/06/09 13:16:22;;;;;;;5.22;4.03;;;;;;;;;;5134473;27;20051;-60
2023/06/09 13:18:49;;;;;;;4.82;4.32;;;;;;;;;;5134290;27;20047;-60
2023/06/09 13:21:16;;;;;;;4.75;4.07;;;;;;;;;;5134373;27;20511;-59
2023/06/09 13:23:43;;;;;;;4.93;4.43;;;;;;;;;;5134487;27;20051;-60
2023/06/09 13:26:12;;;;;;;6.43;4.15;;;;;;;;;;5134408;27;20051;-60
2023/06/09 13:28:38;;;;;;;4.93;4.45;;;;;;;;;;5134255;27;20051;-60
2023/06/09 13:31:05;;;;;;;5.57;4.32;;;;;;;;;;5134093;27;20407;-60
2023/06/09 13:33:32;;;;;;;6.50;4.40;;;;;;;;;;5133496;27;20055;-60
2023/06/09 13:35:59;;;;;;;5.32;4.72;;;;;;;;;;5134286;27;20051;-60
2023/06/09 13:38:26;;;;;;;7.63;4.50;;;;;;;;;;5134255;27;20417;-59
2023/06/09 13:40:53;;;;;;;5.45;4.15;;;;;;;;;;5134021;27;20061;-59
2023/06/09 13:43:21;;;;;;;9.13;4.28;;;;;;;;;;5133740;27;20047;-59
2023/06/09 13:45:48;;;;;;;;;;;;;;;;;;5134228;27;20079;-59
2023/06/09 13:48:16;;;;;;;7.03;4.35;;;;;;;;;;5133943;27;19919;-59
2023/06/09 13:50:46;;;;;;;4.80;4.30;;;;;;;;;;5133435;27;20407;-60
2023/06/09 13:53:13;;;;;;;5.78;4.90;;;;;;;;;;5133856;27;20063;-59
2023/06/09 13:55:39;;;;;;;5.22;4.55;;;;;;;;;;5132634;27;20047;-58
2023/06/09 13:58:06;;;;;;;4.95;4.45;;;;;;;;;;5133373;27;20047;-60
2023/06/09 14:00:35;;;;;;;5.88;4.82;;;;;;;;;;5133340;27;20047;-58
2023/06/09 14:03:01;;;;;;;;;;;;;;;;;;5134025;27;20491;-60
2023/06/09 14:05:28;;;;;;;5.13;4.07;;;;;;;;;;5133250;27;20256;-59
2023/06/09 14:07:56;;;;;;;6.18;4.22;;;;;;;;;;5133042;27;20058;-58
2023/06/09 14:10:26;;;;;;;5.32;4.53;;;;;;;;;;5133241;27;20047;-59
2023/06/09 14:12:56;;;;;;;5.70;4.43;;;;;;;;;;5133664;27;20051;-59
2023/06/09 14:15:22;;;;;;;4.82;4.35;;;;;;;;;;5133181;27;20050;-59
2023/06/09 14:17:51;;;;;;;5.22;4.32;;;;;;;;;;5134407;27;20412;-59
2023/06/09 14:20:21;;;;;;;5.55;4.30;;;;;;;;;;5133143;27;20051;-59
2023/06/09 14:22:48;;;;;;;5.43;4.35;;;;;;;;;;5133527;27;20488;-60
2023/06/09 14:25:18;;;;;;;4.45;4.05;;;;;;;;;;5133076;27;20047;-60
2023/06/09 14:27:46;;;;;;;5.63;4.90;;;;;;;;;;5133446;27;20062;-59
2023/06/09 14:30:17;;;;;;;5.15;4.70;;;;;;;;;;5132806;27;20066;-59
2023/06/09 14:32:47;;;;;;;7.28;4.90;;;;;;;;;;5133362;27;20050;-59
2023/06/09 14:35:20;;;;;;;4.88;4.43;;;;;;;;;;5133034;27;20051;-60
2023/06/09 14:37:50;;;;;;;5.00;4.57;;;;;;;;;;5133290;27;20070;-59
2023/06/09 14:40:17;;;;;;;5.47;4.60;;;;;;;;;;5133205;28;20054;-59
2023/06/09 14:42:45;;;;;;;5.53;4.43;;;;;;;;;;5133340;28;20444;-59